createdAt,value
2019-05-14T00:03:37.228Z,1.25
2019-05-14T00:07:57.708Z,1.30
2019-05-14T00:12:18.548Z,1.30
2019-05-14T00:16:38.937Z,1.00
2019-05-14T00:21:01.998Z,1.07
2019-05-14T00:25:22.424Z,0.95
2019-05-14T00:29:42.953Z,1.07
2019-05-14T00:34:03.164Z,1.02
2019-05-14T00:38:23.783Z,0.85
2019-05-14T00:42:44.413Z,1.17
2019-05-14T00:47:05.007Z,1.05
2019-05-14T00:51:26.128Z,0.78
2019-05-14T00:55:46.920Z,0.80
2019-05-14T01:00:07.287Z,1.00
2019-05-14T01:04:28.674Z,0.80
2019-05-14T01:08:49.048Z,0.80
2019-05-14T01:13:11.203Z,0.53
2019-05-14T01:17:31.637Z,1.20
2019-05-14T01:21:52.653Z,0.85
2019-05-14T01:26:13.438Z,0.82
2019-05-14T01:30:33.687Z,0.50
2019-05-14T01:34:54.099Z,0.88
2019-05-14T01:39:15.456Z,0.95
2019-05-14T01:43:35.747Z,0.60
2019-05-14T01:47:56.479Z,1.07
2019-05-14T01:52:17.446Z,0.80
2019-05-14T01:56:38.141Z,0.90
2019-05-14T02:00:58.675Z,0.95
2019-05-14T02:05:21.582Z,1.02
2019-05-14T02:09:42.174Z,1.00
2019-05-14T02:14:02.878Z,0.82
2019-05-14T02:18:23.622Z,1.00
2019-05-14T02:22:44.330Z,1.35
2019-05-14T02:27:04.950Z,1.02
2019-05-14T02:31:29.051Z,1.10
2019-05-14T02:35:49.400Z,1.10
2019-05-14T02:40:12.966Z,1.30
2019-05-14T02:44:33.278Z,1.90
2019-05-14T02:48:54.097Z,1.55
2019-05-14T02:53:15.162Z,1.92
2019-05-14T02:57:35.386Z,1.50
2019-05-14T03:01:58.872Z,1.62
2019-05-14T03:06:20.049Z,1.80
2019-05-14T03:10:41.040Z,1.80
2019-05-14T03:15:01.312Z,1.70
2019-05-14T03:19:21.644Z,1.60
2019-05-14T03:23:42.394Z,1.52
2019-05-14T03:28:02.769Z,1.62
2019-05-14T03:32:23.396Z,2.40
2019-05-14T03:36:44.236Z,2.33
2019-05-14T03:41:05.052Z,1.70
2019-05-14T03:45:25.636Z,3.08
2019-05-14T03:49:49.540Z,2.37
2019-05-14T03:54:12.681Z,1.95
2019-05-14T03:58:32.834Z,2.25
2019-05-14T04:02:53.645Z,2.30
2019-05-14T04:07:14.846Z,2.25
2019-05-14T04:11:39.836Z,1.98
2019-05-14T04:16:04.810Z,2.47
2019-05-14T04:20:25.443Z,2.37
2019-05-14T04:24:49.576Z,2.17
2019-05-14T04:29:12.223Z,2.08
2019-05-14T04:33:34.113Z,2.75
2019-05-14T04:37:54.294Z,2.60
2019-05-14T04:42:14.444Z,2.30
2019-05-14T04:46:35.384Z,2.27
2019-05-14T04:50:56.050Z,2.45
2019-05-14T04:55:16.413Z,2.40
2019-05-14T04:59:39.763Z,2.60
2019-05-14T05:03:59.947Z,2.37
2019-05-14T05:08:20.779Z,3.15
2019-05-14T05:12:40.996Z,2.22
2019-05-14T05:17:02.970Z,3.35
2019-05-14T05:21:23.525Z,2.95
2019-05-14T05:25:43.580Z,3.27
2019-05-14T05:30:04.522Z,3.72
2019-05-14T05:34:25.169Z,4.47
2019-05-14T05:38:48.734Z,3.25
2019-05-14T05:43:09.016Z,3.95
2019-05-14T05:47:29.683Z,3.98
2019-05-14T05:51:50.222Z,4.20
2019-05-14T05:56:10.525Z,3.70
2019-05-14T06:00:33.670Z,3.80
2019-05-14T06:04:54.627Z,4.30
2019-05-14T06:09:15.072Z,4.37
2019-05-14T06:13:35.394Z,4.08
2019-05-14T06:18:11.632Z,4.12
2019-05-14T06:22:19.674Z,4.33
2019-05-14T06:26:40.198Z,4.25
2019-05-14T06:31:01.292Z,4.55
2019-05-14T06:35:21.608Z,4.92
2019-05-14T06:39:41.861Z,4.37
2019-05-14T06:44:03.060Z,4.75
2019-05-14T06:48:30.297Z,4.22
2019-05-14T06:52:49.015Z,4.42
2019-05-14T06:57:09.082Z,5.20
2019-05-14T07:01:29.728Z,4.25
2019-05-14T07:05:49.824Z,4.35
2019-05-14T07:10:10.324Z,4.10
2019-05-14T07:14:30.863Z,3.98
2019-05-14T07:18:54.142Z,4.42
2019-05-14T07:23:13.613Z,4.55
2019-05-14T07:27:34.342Z,4.67
2019-05-14T07:31:54.974Z,4.33
2019-05-14T07:36:18.667Z,4.75
2019-05-14T07:40:39.282Z,4.35
2019-05-14T07:45:00.292Z,3.70
2019-05-14T07:49:20.896Z,4.08
2019-05-14T07:53:42.461Z,4.20
2019-05-14T07:58:03.663Z,4.12
2019-05-14T08:02:24.850Z,3.25
2019-05-14T08:06:48.743Z,3.10
2019-05-14T08:11:09.077Z,3.15
2019-05-14T08:15:30.170Z,3.00
2019-05-14T08:19:51.448Z,2.30
2019-05-14T08:24:15.358Z,2.80
2019-05-14T08:28:34.883Z,2.95
2019-05-14T08:32:55.531Z,3.00
2019-05-14T08:37:15.977Z,3.02
2019-05-14T08:41:41.516Z,2.42
2019-05-14T08:46:02.588Z,2.72
2019-05-14T08:50:23.493Z,2.75
2019-05-14T08:54:44.727Z,2.15
2019-05-14T08:59:08.705Z,2.72
2019-05-14T09:03:30.367Z,2.30
2019-05-14T09:07:50.985Z,2.20
2019-05-14T09:12:12.723Z,2.10
2019-05-14T09:16:45.500Z,2.42
2019-05-14T09:20:58.238Z,1.57
2019-05-14T09:25:19.383Z,2.30
2019-05-14T09:29:40.590Z,1.82
2019-05-14T09:34:01.177Z,1.85
2019-05-14T09:38:21.847Z,1.72
2019-05-14T09:42:43.117Z,1.55
2019-05-14T09:47:03.761Z,1.82
2019-05-14T09:51:25.164Z,1.85
2019-05-14T09:55:45.503Z,2.12
2019-05-14T10:00:09.051Z,2.20
2019-05-14T10:04:30.263Z,2.35
2019-05-14T10:08:51.109Z,2.27
2019-05-14T10:13:12.145Z,2.25
2019-05-14T10:17:33.273Z,1.77
2019-05-14T10:21:53.842Z,2.33
2019-05-14T10:26:14.546Z,1.70
2019-05-14T10:30:36.127Z,1.50
2019-05-14T10:34:58.859Z,1.60
2019-05-14T10:39:19.462Z,1.80
2019-05-14T10:43:39.548Z,2.12
2019-05-14T10:48:00.739Z,1.82
2019-05-14T10:52:21.275Z,1.87
2019-05-14T10:56:41.674Z,1.60
2019-05-14T11:01:02.347Z,1.77
2019-05-14T11:05:22.795Z,2.12
2019-05-14T11:09:43.266Z,1.72
2019-05-14T11:14:04.750Z,2.10
2019-05-14T11:18:28.812Z,1.85
2019-05-14T11:22:49.440Z,1.98
2019-05-14T11:27:10.240Z,2.00
2019-05-14T11:31:34.241Z,2.37
2019-05-14T11:35:53.005Z,2.10
2019-05-14T11:40:14.622Z,1.77
2019-05-14T11:44:34.951Z,1.62
2019-05-14T11:48:55.401Z,1.57
2019-05-14T11:53:19.144Z,1.62
2019-05-14T11:57:37.953Z,1.57
2019-05-14T12:01:59.447Z,1.90
2019-05-14T12:06:20.028Z,1.60
2019-05-14T12:10:40.756Z,1.72
2019-05-14T12:15:01.548Z,1.82
2019-05-14T12:19:22.001Z,1.80
2019-05-14T12:23:42.416Z,1.32
2019-05-14T12:28:02.950Z,1.50
2019-05-14T12:32:24.316Z,1.55
2019-05-14T12:36:44.816Z,1.32
2019-05-14T12:41:08.934Z,1.52
2019-05-14T12:45:29.922Z,1.55
2019-05-14T12:49:51.306Z,1.72
2019-05-14T12:54:12.263Z,1.25
2019-05-14T12:58:32.883Z,1.22
2019-05-14T13:02:53.125Z,1.32
2019-05-14T13:07:13.282Z,1.85
2019-05-14T13:11:33.805Z,1.52
2019-05-14T13:15:54.975Z,1.40
2019-05-14T13:20:15.494Z,1.10
2019-05-14T13:24:39.176Z,1.98
2019-05-14T13:28:59.032Z,1.47
2019-05-14T13:33:20.101Z,1.10
2019-05-14T13:37:40.886Z,1.15
2019-05-14T13:42:01.450Z,1.20
2019-05-14T13:46:22.079Z,2.05
2019-05-14T13:50:43.069Z,1.42
2019-05-14T13:55:04.189Z,1.55
2019-05-14T13:59:24.334Z,1.22
2019-05-14T14:03:52.512Z,1.37
2019-05-14T14:08:08.822Z,1.30
2019-05-14T14:12:32.468Z,1.72
2019-05-14T14:16:52.982Z,1.50
2019-05-14T14:21:13.989Z,1.70
2019-05-14T14:25:34.523Z,1.55
2019-05-14T14:29:55.275Z,1.75
2019-05-14T14:34:18.023Z,1.60
2019-05-14T14:38:40.191Z,1.50
2019-05-14T14:43:01.679Z,1.05
2019-05-14T14:47:22.126Z,0.95
2019-05-14T14:51:45.135Z,1.30
2019-05-14T14:56:09.051Z,1.17
2019-05-14T15:00:29.423Z,1.50
2019-05-14T15:04:50.211Z,1.00
2019-05-14T15:09:10.813Z,1.52
2019-05-14T15:13:31.170Z,1.32
2019-05-14T15:17:51.433Z,1.25
2019-05-14T15:22:12.960Z,1.15
2019-05-14T15:26:33.317Z,1.22
2019-05-14T15:30:54.489Z,1.07
2019-05-14T15:35:15.571Z,0.90
2019-05-14T15:39:38.912Z,1.25
2019-05-14T15:43:58.901Z,1.07
2019-05-14T15:48:20.093Z,1.07
2019-05-14T15:52:40.948Z,1.10
2019-05-14T15:57:01.475Z,0.80
2019-05-14T16:01:22.581Z,0.90
2019-05-14T16:05:43.705Z,1.25
2019-05-14T16:10:05.173Z,1.25
2019-05-14T16:14:25.674Z,1.20
2019-05-14T16:18:47.992Z,1.12
2019-05-14T16:23:10.856Z,0.82
2019-05-14T16:27:31.193Z,1.07
2019-05-14T16:31:51.882Z,1.50
2019-05-14T16:36:13.002Z,1.17
2019-05-14T16:40:33.359Z,1.20
2019-05-14T16:44:54.050Z,1.00
2019-05-14T16:49:14.491Z,0.80
2019-05-14T16:53:34.981Z,0.78
2019-05-14T16:57:55.309Z,0.95
2019-05-14T17:02:19.123Z,1.65
2019-05-14T17:06:39.826Z,1.05
2019-05-14T17:11:00.545Z,0.90
2019-05-14T17:15:20.864Z,0.88
2019-05-14T17:19:42.130Z,0.85
2019-05-14T17:24:02.492Z,1.50
2019-05-14T17:28:23.542Z,1.05
2019-05-14T17:32:44.599Z,1.00
2019-05-14T17:37:08.716Z,0.72
2019-05-14T17:41:29.200Z,0.85
2019-05-14T17:45:50.044Z,1.05
2019-05-14T17:50:10.792Z,0.90
2019-05-14T17:54:31.741Z,0.88
2019-05-14T17:58:54.124Z,0.70
2019-05-14T18:03:14.711Z,0.90
2019-05-14T18:07:35.745Z,0.65
2019-05-14T18:11:58.452Z,1.27
2019-05-14T18:16:19.405Z,0.80
2019-05-14T18:20:39.751Z,0.80
2019-05-14T18:25:01.042Z,0.88
2019-05-14T18:29:22.431Z,0.90
2019-05-14T18:33:42.589Z,0.57
2019-05-14T18:38:03.431Z,0.78
2019-05-14T18:42:24.203Z,1.00
2019-05-14T18:46:45.018Z,0.85
2019-05-14T18:51:08.649Z,0.72
2019-05-14T18:55:29.462Z,0.72
2019-05-14T18:59:50.839Z,0.90
2019-05-14T19:04:11.258Z,0.90
2019-05-14T19:08:32.239Z,0.70
2019-05-14T19:12:52.521Z,0.90
2019-05-14T19:17:14.247Z,1.00
2019-05-14T19:21:34.932Z,1.27
2019-05-14T19:25:55.161Z,1.17
2019-05-14T19:30:16.220Z,0.98
2019-05-14T19:34:38.190Z,0.88
2019-05-14T19:38:59.485Z,0.72
2019-05-14T19:43:20.605Z,0.72
2019-05-14T19:47:41.121Z,0.82
2019-05-14T19:52:03.073Z,1.20
2019-05-14T19:56:23.551Z,0.75
2019-05-14T20:00:44.667Z,0.80
2019-05-14T20:05:09.506Z,1.02
2019-05-14T20:09:34.518Z,0.90
2019-05-14T20:13:55.832Z,0.85
2019-05-14T20:18:16.789Z,0.80
2019-05-14T20:22:39.161Z,0.80
2019-05-14T20:27:08.313Z,0.53
2019-05-14T20:31:25.726Z,0.88
2019-05-14T20:35:53.015Z,2.30
2019-05-14T20:40:16.257Z,1.60
2019-05-14T20:44:38.666Z,1.40
2019-05-14T20:49:00.258Z,1.40
2019-05-14T20:53:21.025Z,1.15
2019-05-14T20:57:41.936Z,1.20
2019-05-14T21:02:02.923Z,1.40
2019-05-14T21:06:25.254Z,1.57
2019-05-14T21:10:46.525Z,1.55
2019-05-14T21:15:08.956Z,1.12
2019-05-14T21:19:31.728Z,1.15
2019-05-14T21:23:58.635Z,0.95
2019-05-14T21:28:22.477Z,0.72
2019-05-14T21:32:43.076Z,0.95
2019-05-14T21:37:03.778Z,1.05
2019-05-14T21:41:25.295Z,0.95
2019-05-14T21:45:46.033Z,0.88
2019-05-14T21:50:08.941Z,1.15
2019-05-14T21:54:31.071Z,1.00
2019-05-14T21:58:52.253Z,1.02
2019-05-14T22:03:13.026Z,0.60
2019-05-14T22:07:33.816Z,1.05
2019-05-14T22:11:54.558Z,1.00
2019-05-14T22:16:15.512Z,1.27
2019-05-14T22:20:38.599Z,1.30
2019-05-14T22:25:00.169Z,1.45
2019-05-14T22:29:20.528Z,1.17
2019-05-14T22:33:42.325Z,1.45
2019-05-14T22:38:02.891Z,1.20
2019-05-14T22:42:23.896Z,1.20
2019-05-14T22:46:44.542Z,1.30
2019-05-14T22:51:05.126Z,1.22
2019-05-14T22:55:25.740Z,1.10
2019-05-14T22:59:48.650Z,1.22
2019-05-14T23:04:09.199Z,1.47
2019-05-14T23:08:29.377Z,1.20
2019-05-14T23:12:49.936Z,1.30
2019-05-14T23:17:10.281Z,1.40
2019-05-14T23:21:31.128Z,1.30
2019-05-14T23:25:51.784Z,1.12
2019-05-14T23:30:12.514Z,1.42
2019-05-14T23:34:33.093Z,1.07
2019-05-14T23:38:54.301Z,1.35
2019-05-14T23:43:15.336Z,1.32
2019-05-14T23:47:38.065Z,1.50
2019-05-14T23:51:57.926Z,1.50
2019-05-14T23:56:19.421Z,1.10
